createdAt,value
2024-03-16T00:04:34.836Z,12.91
2024-03-16T00:09:36.249Z,12.83
2024-03-16T00:14:37.591Z,12.85
2024-03-16T00:19:39.085Z,12.75
2024-03-16T00:24:41.524Z,12.76
2024-03-16T00:29:43.879Z,12.78
2024-03-16T00:34:45.890Z,12.68
2024-03-16T00:39:47.223Z,12.66
2024-03-16T00:44:48.632Z,12.65
2024-03-16T00:49:50.062Z,12.67
2024-03-16T00:54:51.553Z,12.58
2024-03-16T00:59:52.976Z,12.36
2024-03-16T01:04:54.628Z,12.36
2024-03-16T01:09:56.563Z,12.48
2024-03-16T01:14:58.499Z,12.46
2024-03-16T01:20:00.477Z,12.43
2024-03-16T01:25:03.138Z,12.43
2024-03-16T01:30:05.427Z,12.32
2024-03-16T01:35:07.950Z,12.43
2024-03-16T01:40:10.846Z,12.37
2024-03-16T01:45:16.130Z,12.32
2024-03-16T01:50:21.506Z,12.27
2024-03-16T01:55:23.189Z,12.37
2024-03-16T02:00:25.067Z,12.25
2024-03-16T02:05:27.106Z,12.34
2024-03-16T02:10:28.404Z,12.35
2024-03-16T02:15:30.065Z,12.27
2024-03-16T02:20:33.089Z,12.31
2024-03-16T02:25:35.583Z,12.28
2024-03-16T02:30:37.407Z,12.43
2024-03-16T02:35:39.499Z,12.28
2024-03-16T02:40:41.192Z,12.09
2024-03-16T02:45:42.563Z,12.16
2024-03-16T02:50:46.398Z,12.22
2024-03-16T02:55:47.780Z,12.20
2024-03-16T03:00:50.902Z,12.26
2024-03-16T03:05:54.031Z,12.26
2024-03-16T03:10:57.145Z,12.27
2024-03-16T03:15:58.508Z,12.17
2024-03-16T03:21:00.149Z,12.10
2024-03-16T03:26:02.201Z,11.97
2024-03-16T03:31:05.049Z,11.93
2024-03-16T03:36:07.004Z,11.76
2024-03-16T03:41:09.120Z,11.78
2024-03-16T03:46:20.003Z,11.87
2024-03-16T03:51:21.803Z,11.75
2024-03-16T03:56:23.275Z,11.79
2024-03-16T04:01:24.946Z,11.79
2024-03-16T04:06:27.102Z,11.88
2024-03-16T04:11:30.641Z,11.92
2024-03-16T04:16:31.988Z,11.85
2024-03-16T04:21:33.771Z,11.78
2024-03-16T04:26:35.270Z,11.75
2024-03-16T04:36:40.420Z,11.64
2024-03-16T04:41:41.790Z,11.66
2024-03-16T04:46:44.102Z,11.58
2024-03-16T04:51:46.817Z,11.53
2024-03-16T04:56:48.664Z,11.53
2024-03-16T05:01:50.850Z,11.49
2024-03-16T05:06:52.243Z,11.54
2024-03-16T05:11:53.775Z,11.58
2024-03-16T05:16:55.656Z,11.52
2024-03-16T05:21:57.261Z,11.49
2024-03-16T05:26:58.613Z,11.55
2024-03-16T05:32:00.546Z,11.47
2024-03-16T05:37:02.322Z,11.39
2024-03-16T05:42:03.962Z,11.40
2024-03-16T05:47:05.443Z,11.40
2024-03-16T05:52:07.092Z,11.31
2024-03-16T05:57:08.709Z,11.22
2024-03-16T06:02:10.354Z,11.25
2024-03-16T06:07:12.450Z,11.32
2024-03-16T06:12:13.823Z,11.43
2024-03-16T06:17:15.789Z,11.41
2024-03-16T06:22:17.793Z,11.48
2024-03-16T06:27:22.737Z,11.32
2024-03-16T06:32:24.427Z,11.39
2024-03-16T06:37:25.891Z,11.26
2024-03-16T06:42:29.490Z,11.42
2024-03-16T06:47:30.940Z,11.35
2024-03-16T06:52:32.476Z,11.42
2024-03-16T06:57:34.974Z,11.49
2024-03-16T07:02:36.937Z,11.61
2024-03-16T07:07:39.703Z,11.75
2024-03-16T07:12:42.093Z,11.92
2024-03-16T07:17:45.382Z,11.85
2024-03-16T07:22:49.205Z,11.88
2024-03-16T07:27:50.667Z,11.94
2024-03-16T07:32:53.111Z,12.02
2024-03-16T07:37:54.679Z,12.11
2024-03-16T07:42:56.980Z,12.07
2024-03-16T07:47:58.690Z,12.13
2024-03-16T07:53:00.050Z,12.12
2024-03-16T07:58:02.385Z,12.11
2024-03-16T08:03:04.450Z,12.15
2024-03-16T08:08:06.583Z,12.30
2024-03-16T08:13:09.452Z,12.43
2024-03-16T08:18:12.428Z,12.48
2024-03-16T08:23:14.448Z,12.55
2024-03-16T08:28:16.084Z,12.57
2024-03-16T08:33:17.637Z,12.84
2024-03-16T08:38:19.025Z,13.03
2024-03-16T08:43:22.335Z,13.06
2024-03-16T08:48:26.007Z,13.09
2024-03-16T08:53:27.439Z,13.18
2024-03-16T08:58:30.840Z,13.11
2024-03-16T09:03:33.098Z,13.25
2024-03-16T09:08:38.467Z,13.65
2024-03-16T09:13:40.033Z,13.88
2024-03-16T09:18:41.786Z,14.22
2024-03-16T09:23:43.095Z,14.39
2024-03-16T09:28:44.386Z,14.49
2024-03-16T09:33:46.012Z,14.44
2024-03-16T09:38:47.552Z,14.46
